sensor_id;sensor_type;location;lat;lon;timestamp;pressure;altitude;pressure_sealevel;temperature;humidity
85244;BME280;75643;56.928;41.094;2024-02-15T00:01:45;102312.00;;;-20.07;74.47
85244;BME280;75643;56.928;41.094;2024-02-15T00:04:13;102342.63;;;-19.92;74.81
85244;BME280;75643;56.928;41.094;2024-02-15T00:06:43;102316.13;;;-20.07;74.75
85244;BME280;75643;56.928;41.094;2024-02-15T00:09:11;102338.31;;;-19.99;74.38
85244;BME280;75643;56.928;41.094;2024-02-15T00:11:38;102304.50;;;-20.18;74.58
85244;BME280;75643;56.928;41.094;2024-02-15T00:14:05;102318.44;;;-20.20;74.71
85244;BME280;75643;56.928;41.094;2024-02-15T00:16:38;102307.03;;;-20.23;74.75
85244;BME280;75643;56.928;41.094;2024-02-15T00:19:08;102311.13;;;-20.24;75.21
85244;BME280;75643;56.928;41.094;2024-02-15T00:21:43;102347.22;;;-20.01;74.86
85244;BME280;75643;56.928;41.094;2024-02-15T00:24:12;102341.75;;;-20.10;74.44
85244;BME280;75643;56.928;41.094;2024-02-15T00:26:41;102309.75;;;-20.16;74.78
85244;BME280;75643;56.928;41.094;2024-02-15T00:29:11;102331.72;;;-20.21;75.07
85244;BME280;75643;56.928;41.094;2024-02-15T00:31:38;102337.66;;;-20.15;74.69
85244;BME280;75643;56.928;41.094;2024-02-15T00:34:07;102324.41;;;-20.30;74.72
85244;BME280;75643;56.928;41.094;2024-02-15T00:36:35;102353.66;;;-20.20;74.35
85244;BME280;75643;56.928;41.094;2024-02-15T00:39:03;102340.19;;;-20.26;74.92
85244;BME280;75643;56.928;41.094;2024-02-15T00:41:32;102335.38;;;-20.24;74.13
85244;BME280;75643;56.928;41.094;2024-02-15T00:44:01;102328.78;;;-20.35;74.84
85244;BME280;75643;56.928;41.094;2024-02-15T00:46:27;102324.94;;;-20.38;74.85
85244;BME280;75643;56.928;41.094;2024-02-15T00:48:55;102339.03;;;-20.28;74.91
85244;BME280;75643;56.928;41.094;2024-02-15T00:51:21;102317.59;;;-20.43;74.72
85244;BME280;75643;56.928;41.094;2024-02-15T00:53:48;102321.50;;;-20.50;74.93
85244;BME280;75643;56.928;41.094;2024-02-15T00:56:16;102338.41;;;-20.38;74.78
85244;BME280;75643;56.928;41.094;2024-02-15T00:58:43;102351.66;;;-20.39;74.73
85244;BME280;75643;56.928;41.094;2024-02-15T01:01:09;102342.53;;;-20.44;74.99
85244;BME280;75643;56.928;41.094;2024-02-15T01:03:37;102363.31;;;-20.39;74.96
85244;BME280;75643;56.928;41.094;2024-02-15T01:06:04;102362.84;;;-20.43;74.47
85244;BME280;75643;56.928;41.094;2024-02-15T01:08:31;102368.78;;;-20.42;74.80
85244;BME280;75643;56.928;41.094;2024-02-15T01:10:58;102327.44;;;-20.66;74.80
85244;BME280;75643;56.928;41.094;2024-02-15T01:13:25;102308.03;;;-20.67;74.39
85244;BME280;75643;56.928;41.094;2024-02-15T01:15:51;102346.84;;;-20.54;74.38
85244;BME280;75643;56.928;41.094;2024-02-15T01:18:21;102319.88;;;-20.66;74.94
85244;BME280;75643;56.928;41.094;2024-02-15T01:20:47;102322.88;;;-20.69;75.04
85244;BME280;75643;56.928;41.094;2024-02-15T01:23:15;102343.41;;;-20.55;74.50
85244;BME280;75643;56.928;41.094;2024-02-15T01:25:42;102326.31;;;-20.63;74.62
85244;BME280;75643;56.928;41.094;2024-02-15T01:28:09;102364.00;;;-20.52;75.00
85244;BME280;75643;56.928;41.094;2024-02-15T01:30:36;102353.28;;;-20.56;74.60
85244;BME280;75643;56.928;41.094;2024-02-15T01:33:04;102297.75;;;-20.74;74.57
85244;BME280;75643;56.928;41.094;2024-02-15T01:35:31;102337.72;;;-20.59;74.40
85244;BME280;75643;56.928;41.094;2024-02-15T01:37:57;102304.38;;;-20.75;74.52
85244;BME280;75643;56.928;41.094;2024-02-15T01:40:23;102327.66;;;-20.70;74.39
85244;BME280;75643;56.928;41.094;2024-02-15T01:42:50;102345.94;;;-20.60;74.73
85244;BME280;75643;56.928;41.094;2024-02-15T01:45:16;102319.22;;;-20.88;74.87
85244;BME280;75643;56.928;41.094;2024-02-15T01:47:42;102327.22;;;-20.73;74.61
85244;BME280;75643;56.928;41.094;2024-02-15T01:50:11;102298.63;;;-20.96;74.73
85244;BME280;75643;56.928;41.094;2024-02-15T01:52:39;102306.22;;;-20.91;74.73
85244;BME280;75643;56.928;41.094;2024-02-15T01:55:07;102344.81;;;-20.73;75.18
85244;BME280;75643;56.928;41.094;2024-02-15T01:57:35;102329.25;;;-20.88;74.89
85244;BME280;75643;56.928;41.094;2024-02-15T02:00:05;102346.84;;;-20.76;74.64
85244;BME280;75643;56.928;41.094;2024-02-15T02:02:46;102336.13;;;-20.75;75.26
85244;BME280;75643;56.928;41.094;2024-02-15T02:05:14;102318.53;;;-20.87;74.96
85244;BME280;75643;56.928;41.094;2024-02-15T02:07:40;102316.94;;;-20.80;74.99
85244;BME280;75643;56.928;41.094;2024-02-15T02:10:08;102336.38;;;-20.68;74.63
85244;BME280;75643;56.928;41.094;2024-02-15T02:12:38;102342.06;;;-20.64;74.60
85244;BME280;75643;56.928;41.094;2024-02-15T02:15:09;102356.00;;;-20.60;74.80
85244;BME280;75643;56.928;41.094;2024-02-15T02:17:37;102297.28;;;-20.83;74.73
85244;BME280;75643;56.928;41.094;2024-02-15T02:20:03;102345.75;;;-20.62;74.38
85244;BME280;75643;56.928;41.094;2024-02-15T02:22:35;102347.53;;;-20.55;74.31
85244;BME280;75643;56.928;41.094;2024-02-15T02:25:07;102354.19;;;-20.56;74.02
85244;BME280;75643;56.928;41.094;2024-02-15T02:27:36;102321.03;;;-20.64;74.25
85244;BME280;75643;56.928;41.094;2024-02-15T02:30:04;102347.31;;;-20.46;74.25
85244;BME280;75643;56.928;41.094;2024-02-15T02:32:35;102330.19;;;-20.54;73.99
85244;BME280;75643;56.928;41.094;2024-02-15T02:35:03;102356.47;;;-20.46;74.02
85244;BME280;75643;56.928;41.094;2024-02-15T02:37:33;102341.81;;;-20.43;73.56
85244;BME280;75643;56.928;41.094;2024-02-15T02:40:04;102350.06;;;-20.38;73.66
85244;BME280;75643;56.928;41.094;2024-02-15T02:42:31;102314.41;;;-20.53;73.52
85244;BME280;75643;56.928;41.094;2024-02-15T02:44:57;102336.59;;;-20.39;73.68
85244;BME280;75643;56.928;41.094;2024-02-15T02:47:24;102353.66;;;-20.31;73.65
85244;BME280;75643;56.928;41.094;2024-02-15T02:49:51;102334.06;;;-20.33;72.82
85244;BME280;75643;56.928;41.094;2024-02-15T02:52:17;102341.38;;;-20.41;73.33
85244;BME280;75643;56.928;41.094;2024-02-15T02:54:44;102346.16;;;-20.36;73.26
85244;BME280;75643;56.928;41.094;2024-02-15T02:57:11;102350.06;;;-20.33;73.39
85244;BME280;75643;56.928;41.094;2024-02-15T02:59:43;102348.44;;;-20.27;73.46
85244;BME280;75643;56.928;41.094;2024-02-15T03:02:12;102352.97;;;-20.30;73.46
85244;BME280;75643;56.928;41.094;2024-02-15T03:04:39;102341.84;;;-20.32;73.44
85244;BME280;75643;56.928;41.094;2024-02-15T03:07:07;102337.03;;;-20.36;73.00
85244;BME280;75643;56.928;41.094;2024-02-15T03:09:33;102318.50;;;-20.48;73.17
85244;BME280;75643;56.928;41.094;2024-02-15T03:11:59;102354.56;;;-20.25;73.50
85244;BME280;75643;56.928;41.094;2024-02-15T03:14:27;102312.13;;;-20.57;73.47
85244;BME280;75643;56.928;41.094;2024-02-15T03:16:57;102360.75;;;-20.28;73.19
85244;BME280;75643;56.928;41.094;2024-02-15T03:19:23;102365.53;;;-20.19;73.44
85244;BME280;75643;56.928;41.094;2024-02-15T03:21:50;102351.19;;;-20.36;73.31
85244;BME280;75643;56.928;41.094;2024-02-15T03:24:20;102355.97;;;-20.27;73.12
85244;BME280;75643;56.928;41.094;2024-02-15T03:26:47;102383.63;;;-20.16;73.26
85244;BME280;75643;56.928;41.094;2024-02-15T03:29:14;102373.56;;;-20.21;73.69
85244;BME280;75643;56.928;41.094;2024-02-15T03:31:40;102343.44;;;-20.32;72.96
85244;BME280;75643;56.928;41.094;2024-02-15T03:34:07;102351.38;;;-20.29;73.33
85244;BME280;75643;56.928;41.094;2024-02-15T03:36:36;102376.97;;;-20.10;73.06
85244;BME280;75643;56.928;41.094;2024-02-15T03:39:03;102332.91;;;-20.35;73.12
85244;BME280;75643;56.928;41.094;2024-02-15T03:41:32;102377.69;;;-20.16;73.15
85244;BME280;75643;56.928;41.094;2024-02-15T03:43:59;102380.63;;;-20.13;73.21
85244;BME280;75643;56.928;41.094;2024-02-15T03:46:26;102357.34;;;-20.29;72.79
85244;BME280;75643;56.928;41.094;2024-02-15T03:48:53;102361.44;;;-20.18;72.96
85244;BME280;75643;56.928;41.094;2024-02-15T03:51:20;102381.56;;;-20.29;72.48
85244;BME280;75643;56.928;41.094;2024-02-15T03:53:47;102363.97;;;-20.29;72.91
85244;BME280;75643;56.928;41.094;2024-02-15T03:56:16;102371.97;;;-20.26;73.02
85244;BME280;75643;56.928;41.094;2024-02-15T03:58:45;102366.47;;;-20.29;72.71
85244;BME280;75643;56.928;41.094;2024-02-15T04:01:11;102378.41;;;-20.34;72.93
85244;BME280;75643;56.928;41.094;2024-02-15T04:03:39;102373.78;;;-20.25;73.01
85244;BME280;75643;56.928;41.094;2024-02-15T04:06:07;102374.94;;;-20.29;72.88
85244;BME280;75643;56.928;41.094;2024-02-15T04:08:34;102371.09;;;-20.32;72.90
85244;BME280;75643;56.928;41.094;2024-02-15T04:11:01;102380.44;;;-20.31;72.81
85244;BME280;75643;56.928;41.094;2024-02-15T04:13:27;102377.06;;;-20.32;73.23
85244;BME280;75643;56.928;41.094;2024-02-15T04:15:56;102348.44;;;-20.49;73.08
85244;BME280;75643;56.928;41.094;2024-02-15T04:18:28;102368.34;;;-20.34;73.35
85244;BME280;75643;56.928;41.094;2024-02-15T05:47:05;102376.06;;;-18.32;67.34
85244;BME280;75643;56.928;41.094;2024-02-15T05:49:32;102363.75;;;-18.17;66.65
85244;BME280;75643;56.928;41.094;2024-02-15T05:52:23;102365.31;;;-18.12;66.10
85244;BME280;75643;56.928;41.094;2024-02-15T05:54:53;102340.38;;;-17.98;65.59
85244;BME280;75643;56.928;41.094;2024-02-15T05:57:19;102350.25;;;-17.39;64.80
85244;BME280;75643;56.928;41.094;2024-02-15T05:59:46;102363.88;;;-17.08;62.67
85244;BME280;75643;56.928;41.094;2024-02-15T06:02:13;102343.34;;;-17.04;62.35
85244;BME280;75643;56.928;41.094;2024-02-15T06:04:41;102366.03;;;-16.42;61.52
85244;BME280;75643;56.928;41.094;2024-02-15T06:07:07;102354.34;;;-16.16;60.26
85244;BME280;75643;56.928;41.094;2024-02-15T06:09:35;102385.47;;;-15.80;59.21
85244;BME280;75643;56.928;41.094;2024-02-15T06:12:03;102346.94;;;-15.64;58.06
85244;BME280;75643;56.928;41.094;2024-02-15T06:14:29;102362.81;;;-15.08;57.84
85244;BME280;75643;56.928;41.094;2024-02-15T06:16:56;102337.84;;;-14.85;56.76
85244;BME280;75643;56.928;41.094;2024-02-15T06:19:24;102366.59;;;-14.91;56.06
85244;BME280;75643;56.928;41.094;2024-02-15T06:21:53;102369.94;;;-15.30;56.65
85244;BME280;75643;56.928;41.094;2024-02-15T06:24:20;102369.56;;;-15.91;58.68
85244;BME280;75643;56.928;41.094;2024-02-15T06:26:47;102387.31;;;-15.78;58.47
85244;BME280;75643;56.928;41.094;2024-02-15T06:29:17;102391.34;;;-15.86;58.98
85244;BME280;75643;56.928;41.094;2024-02-15T06:32:02;102366.38;;;-16.34;58.89
85244;BME280;75643;56.928;41.094;2024-02-15T06:34:47;102391.13;;;-16.69;61.19
85244;BME280;75643;56.928;41.094;2024-02-15T06:37:37;102379.81;;;-16.84;61.86
85244;BME280;75643;56.928;41.094;2024-02-15T06:40:34;102396.44;;;-16.86;61.94
85244;BME280;75643;56.928;41.094;2024-02-15T06:43:08;102372.16;;;-17.27;63.24
85244;BME280;75643;56.928;41.094;2024-02-15T06:45:36;102385.63;;;-17.03;63.22
85244;BME280;75643;56.928;41.094;2024-02-15T06:48:04;102383.34;;;-17.07;63.47
85244;BME280;75643;56.928;41.094;2024-02-15T06:50:34;102362.44;;;-17.24;63.97
85244;BME280;75643;56.928;41.094;2024-02-15T06:53:03;102388.63;;;-17.06;64.32
85244;BME280;75643;56.928;41.094;2024-02-15T06:55:29;102362.19;;;-17.20;63.91
85244;BME280;75643;56.928;41.094;2024-02-15T06:57:56;102355.63;;;-17.13;63.75
85244;BME280;75643;56.928;41.094;2024-02-15T07:00:23;102371.16;;;-17.04;64.13
85244;BME280;75643;56.928;41.094;2024-02-15T07:02:52;102362.75;;;-17.28;64.32
85244;BME280;75643;56.928;41.094;2024-02-15T07:05:20;102364.41;;;-17.16;64.62
85244;BME280;75643;56.928;41.094;2024-02-15T07:07:47;102378.16;;;-16.96;64.23
85244;BME280;75643;56.928;41.094;2024-02-15T07:10:14;102377.88;;;-16.92;64.36
85244;BME280;75643;56.928;41.094;2024-02-15T07:12:42;102377.03;;;-16.80;64.26
85244;BME280;75643;56.928;41.094;2024-02-15T07:15:14;102373.88;;;-16.84;63.69
85244;BME280;75643;56.928;41.094;2024-02-15T07:17:40;102364.25;;;-16.87;64.71
85244;BME280;75643;56.928;41.094;2024-02-15T07:20:11;102357.09;;;-16.71;63.86
85244;BME280;75643;56.928;41.094;2024-02-15T07:22:39;102385.16;;;-16.57;63.59
85244;BME280;75643;56.928;41.094;2024-02-15T07:25:05;102397.69;;;-16.33;62.89
85244;BME280;75643;56.928;41.094;2024-02-15T07:27:32;102400.31;;;-16.13;62.34
85244;BME280;75643;56.928;41.094;2024-02-15T07:30:00;102388.50;;;-15.95;61.80
85244;BME280;75643;56.928;41.094;2024-02-15T07:32:30;102394.59;;;-15.74;61.36
85244;BME280;75643;56.928;41.094;2024-02-15T07:34:57;102390.50;;;-15.54;61.12
85244;BME280;75643;56.928;41.094;2024-02-15T07:37:24;102398.97;;;-15.41;59.52
85244;BME280;75643;56.928;41.094;2024-02-15T07:39:52;102395.25;;;-15.50;60.37
85244;BME280;75643;56.928;41.094;2024-02-15T07:42:19;102394.56;;;-15.49;60.91
85244;BME280;75643;56.928;41.094;2024-02-15T07:44:45;102396.13;;;-15.37;60.10
85244;BME280;75643;56.928;41.094;2024-02-15T07:47:11;102379.28;;;-15.56;59.70
85244;BME280;75643;56.928;41.094;2024-02-15T07:49:42;102403.09;;;-15.61;60.46
85244;BME280;75643;56.928;41.094;2024-02-15T07:52:09;102402.47;;;-15.66;60.45
85244;BME280;75643;56.928;41.094;2024-02-15T07:54:35;102382.31;;;-15.71;60.23
85244;BME280;75643;56.928;41.094;2024-02-15T07:57:01;102401.78;;;-15.52;60.14
85244;BME280;75643;56.928;41.094;2024-02-15T07:59:27;102401.50;;;-15.28;60.32
85244;BME280;75643;56.928;41.094;2024-02-15T08:01:54;102392.28;;;-15.28;60.01
85244;BME280;75643;56.928;41.094;2024-02-15T08:04:20;102406.44;;;-15.23;59.03
85244;BME280;75643;56.928;41.094;2024-02-15T08:06:49;102393.19;;;-15.40;59.84
85244;BME280;75643;56.928;41.094;2024-02-15T08:09:16;102388.34;;;-15.51;60.22
85244;BME280;75643;56.928;41.094;2024-02-15T08:11:44;102380.91;;;-15.57;59.64
85244;BME280;75643;56.928;41.094;2024-02-15T08:14:10;102400.75;;;-15.60;59.57
85244;BME280;75643;56.928;41.094;2024-02-15T08:16:37;102379.06;;;-15.70;60.01
85244;BME280;75643;56.928;41.094;2024-02-15T08:19:03;102383.91;;;-15.59;60.34
85244;BME280;75643;56.928;41.094;2024-02-15T08:21:31;102406.84;;;-15.65;60.74
85244;BME280;75643;56.928;41.094;2024-02-15T08:24:05;102401.41;;;-15.48;60.05
85244;BME280;75643;56.928;41.094;2024-02-15T08:26:41;102408.72;;;-15.31;60.38
85244;BME280;75643;56.928;41.094;2024-02-15T08:29:07;102405.16;;;-15.39;59.38
85244;BME280;75643;56.928;41.094;2024-02-15T08:31:33;102376.56;;;-15.38;59.01
85244;BME280;75643;56.928;41.094;2024-02-15T08:34:03;102404.34;;;-15.32;59.65
85244;BME280;75643;56.928;41.094;2024-02-15T08:36:31;102421.06;;;-15.15;59.13
85244;BME280;75643;56.928;41.094;2024-02-15T08:38:58;102418.19;;;-15.11;58.46
85244;BME280;75643;56.928;41.094;2024-02-15T08:41:24;102401.25;;;-15.05;58.96
85244;BME280;75643;56.928;41.094;2024-02-15T08:43:53;102420.50;;;-15.00;58.30
85244;BME280;75643;56.928;41.094;2024-02-15T08:46:19;102400.16;;;-15.19;58.29
85244;BME280;75643;56.928;41.094;2024-02-15T08:48:47;102427.72;;;-15.03;57.53
85244;BME280;75643;56.928;41.094;2024-02-15T08:51:14;102409.22;;;-15.02;58.50
85244;BME280;75643;56.928;41.094;2024-02-15T08:53:43;102412.69;;;-15.01;57.95
85244;BME280;75643;56.928;41.094;2024-02-15T08:56:09;102420.81;;;-15.04;58.49
85244;BME280;75643;56.928;41.094;2024-02-15T08:58:37;102421.41;;;-14.99;58.21
85244;BME280;75643;56.928;41.094;2024-02-15T09:01:05;102430.75;;;-14.92;59.20
85244;BME280;75643;56.928;41.094;2024-02-15T09:03:33;102430.25;;;-14.90;58.57
85244;BME280;75643;56.928;41.094;2024-02-15T09:05:59;102412.19;;;-14.99;57.41
85244;BME280;75643;56.928;41.094;2024-02-15T09:08:28;102420.63;;;-15.05;57.88
85244;BME280;75643;56.928;41.094;2024-02-15T09:10:57;102407.56;;;-15.08;59.30
85244;BME280;75643;56.928;41.094;2024-02-15T09:13:24;102409.88;;;-15.10;58.36
85244;BME280;75643;56.928;41.094;2024-02-15T09:15:50;102406.44;;;-15.10;59.69
85244;BME280;75643;56.928;41.094;2024-02-15T09:18:18;102410.25;;;-15.07;58.33
85244;BME280;75643;56.928;41.094;2024-02-15T09:20:46;102402.06;;;-15.11;58.71
85244;BME280;75643;56.928;41.094;2024-02-15T09:23:15;102404.34;;;-15.20;59.21
85244;BME280;75643;56.928;41.094;2024-02-15T09:25:41;102396.91;;;-15.18;59.22
85244;BME280;75643;56.928;41.094;2024-02-15T09:28:13;102419.03;;;-15.17;59.09
85244;BME280;75643;56.928;41.094;2024-02-15T09:30:40;102403.59;;;-15.19;59.68
85244;BME280;75643;56.928;41.094;2024-02-15T09:33:06;102411.28;;;-14.99;59.68
85244;BME280;75643;56.928;41.094;2024-02-15T09:35:33;102399.38;;;-14.93;60.00
85244;BME280;75643;56.928;41.094;2024-02-15T09:37:59;102393.81;;;-14.90;58.62
85244;BME280;75643;56.928;41.094;2024-02-15T09:40:26;102424.50;;;-14.82;58.60
85244;BME280;75643;56.928;41.094;2024-02-15T09:42:55;102378.41;;;-15.05;58.61
85244;BME280;75643;56.928;41.094;2024-02-15T09:45:24;102401.00;;;-14.93;59.18
85244;BME280;75643;56.928;41.094;2024-02-15T09:47:52;102398.81;;;-14.78;59.25
85244;BME280;75643;56.928;41.094;2024-02-15T09:50:19;102406.88;;;-14.87;59.56
85244;BME280;75643;56.928;41.094;2024-02-15T09:52:50;102384.09;;;-14.80;59.82
85244;BME280;75643;56.928;41.094;2024-02-15T09:55:17;102371.00;;;-14.83;59.15
85244;BME280;75643;56.928;41.094;2024-02-15T09:57:45;102384.78;;;-14.69;58.16
85244;BME280;75643;56.928;41.094;2024-02-15T10:00:13;102381.69;;;-14.86;58.89
85244;BME280;75643;56.928;41.094;2024-02-15T10:02:48;102385.22;;;-14.78;58.82
85244;BME280;75643;56.928;41.094;2024-02-15T10:05:18;102391.25;;;-14.71;60.01
85244;BME280;75643;56.928;41.094;2024-02-15T10:07:47;102397.72;;;-14.60;59.48
85244;BME280;75643;56.928;41.094;2024-02-15T10:10:20;102388.09;;;-14.43;58.57
85244;BME280;75643;56.928;41.094;2024-02-15T10:12:50;102379.16;;;-14.46;58.96
85244;BME280;75643;56.928;41.094;2024-02-15T10:15:32;102390.69;;;-14.56;59.11
85244;BME280;75643;56.928;41.094;2024-02-15T10:18:05;102397.72;;;-14.40;59.29
85244;BME280;75643;56.928;41.094;2024-02-15T10:20:34;102388.84;;;-14.37;59.06
85244;BME280;75643;56.928;41.094;2024-02-15T10:25:36;102371.66;;;-14.32;58.42
85244;BME280;75643;56.928;41.094;2024-02-15T10:28:25;102383.09;;;-14.29;58.25
85244;BME280;75643;56.928;41.094;2024-02-15T10:30:54;102385.56;;;-14.16;59.05
85244;BME280;75643;56.928;41.094;2024-02-15T10:33:28;102380.81;;;-13.93;58.80
85244;BME280;75643;56.928;41.094;2024-02-15T10:36:05;102371.75;;;-13.91;57.91
85244;BME280;75643;56.928;41.094;2024-02-15T10:38:32;102388.59;;;-13.99;58.01
85244;BME280;75643;56.928;41.094;2024-02-15T10:41:08;102335.53;;;-14.30;58.96
85244;BME280;75643;56.928;41.094;2024-02-15T10:43:37;102371.00;;;-13.97;58.66
85244;BME280;75643;56.928;41.094;2024-02-15T10:46:05;102386.97;;;-13.64;57.86
85244;BME280;75643;56.928;41.094;2024-02-15T10:48:35;102374.97;;;-13.65;58.48
85244;BME280;75643;56.928;41.094;2024-02-15T10:51:03;102368.78;;;-13.75;58.14
85244;BME280;75643;56.928;41.094;2024-02-15T10:53:35;102391.31;;;-13.71;58.09
85244;BME280;75643;56.928;41.094;2024-02-15T10:56:26;102376.75;;;-13.79;57.71
85244;BME280;75643;56.928;41.094;2024-02-15T10:59:03;102386.47;;;-13.89;57.33
85244;BME280;75643;56.928;41.094;2024-02-15T11:01:36;102372.00;;;-14.09;59.16
85244;BME280;75643;56.928;41.094;2024-02-15T11:04:07;102388.25;;;-13.95;58.63
85244;BME280;75643;56.928;41.094;2024-02-15T11:06:38;102385.94;;;-13.86;59.04
85244;BME280;75643;56.928;41.094;2024-02-15T11:09:08;102395.63;;;-13.77;58.73
85244;BME280;75643;56.928;41.094;2024-02-15T11:11:38;102385.59;;;-13.82;58.48
85244;BME280;75643;56.928;41.094;2024-02-15T11:16:52;102360.25;;;-14.02;57.98
85244;BME280;75643;56.928;41.094;2024-02-15T11:19:44;102382.94;;;-14.03;58.97
85244;BME280;75643;56.928;41.094;2024-02-15T11:22:14;102353.38;;;-14.23;58.81
85244;BME280;75643;56.928;41.094;2024-02-15T11:24:49;102357.81;;;-14.15;58.63
85244;BME280;75643;56.928;41.094;2024-02-15T11:27:27;102357.66;;;-14.09;58.63
85244;BME280;75643;56.928;41.094;2024-02-15T11:29:54;102360.28;;;-13.95;59.13
85244;BME280;75643;56.928;41.094;2024-02-15T11:32:46;102345.63;;;-13.90;58.60
85244;BME280;75643;56.928;41.094;2024-02-15T11:35:24;102358.72;;;-13.87;58.81
85244;BME280;75643;56.928;41.094;2024-02-15T11:37:58;102346.66;;;-13.95;58.80
85244;BME280;75643;56.928;41.094;2024-02-15T11:42:57;102315.34;;;-14.42;59.19
85244;BME280;75643;56.928;41.094;2024-02-15T11:45:27;102322.91;;;-14.23;58.90
85244;BME280;75643;56.928;41.094;2024-02-15T11:48:08;102355.50;;;-14.06;59.66
85244;BME280;75643;56.928;41.094;2024-02-15T11:50:39;102341.31;;;-14.11;59.52
85244;BME280;75643;56.928;41.094;2024-02-15T11:53:07;102363.38;;;-13.97;58.76
85244;BME280;75643;56.928;41.094;2024-02-15T11:55:38;102366.63;;;-13.98;59.13
85244;BME280;75643;56.928;41.094;2024-02-15T11:58:07;102347.72;;;-14.00;58.84
85244;BME280;75643;56.928;41.094;2024-02-15T12:00:37;102358.84;;;-13.93;58.58
85244;BME280;75643;56.928;41.094;2024-02-15T12:03:23;102352.16;;;-13.92;58.98
85244;BME280;75643;56.928;41.094;2024-02-15T12:06:08;102338.88;;;-13.97;58.99
85244;BME280;75643;56.928;41.094;2024-02-15T12:08:54;102353.19;;;-13.97;59.10
85244;BME280;75643;56.928;41.094;2024-02-15T12:11:42;102346.00;;;-13.87;59.63
85244;BME280;75643;56.928;41.094;2024-02-15T12:14:27;102362.63;;;-13.70;59.20
85244;BME280;75643;56.928;41.094;2024-02-15T12:17:13;102338.72;;;-13.91;59.01
85244;BME280;75643;56.928;41.094;2024-02-15T12:20:03;102356.69;;;-13.90;59.22
85244;BME280;75643;56.928;41.094;2024-02-15T12:22:48;102353.28;;;-13.83;59.94
85244;BME280;75643;56.928;41.094;2024-02-15T12:25:17;102333.44;;;-13.93;59.49
85244;BME280;75643;56.928;41.094;2024-02-15T12:27:56;102331.41;;;-13.95;59.37
85244;BME280;75643;56.928;41.094;2024-02-15T12:30:22;102331.41;;;-13.95;59.04
85244;BME280;75643;56.928;41.094;2024-02-15T12:32:51;102293.63;;;-13.99;59.09
85244;BME280;75643;56.928;41.094;2024-02-15T12:35:21;102327.13;;;-13.82;59.32
85244;BME280;75643;56.928;41.094;2024-02-15T12:38:03;102331.91;;;-13.78;59.60
85244;BME280;75643;56.928;41.094;2024-02-15T12:40:33;102339.47;;;-13.85;58.85
85244;BME280;75643;56.928;41.094;2024-02-15T12:43:00;102324.00;;;-13.94;59.34
85244;BME280;75643;56.928;41.094;2024-02-15T12:45:28;102330.03;;;-14.13;59.40
85244;BME280;75643;56.928;41.094;2024-02-15T12:47:56;102301.38;;;-14.12;58.90
85244;BME280;75643;56.928;41.094;2024-02-15T12:50:27;102345.84;;;-13.82;58.80
85244;BME280;75643;56.928;41.094;2024-02-15T12:52:54;102331.31;;;-13.83;58.68
85244;BME280;75643;56.928;41.094;2024-02-15T12:55:33;102362.00;;;-13.81;59.40
85244;BME280;75643;56.928;41.094;2024-02-15T12:58:12;102329.13;;;-13.87;59.49
85244;BME280;75643;56.928;41.094;2024-02-15T13:00:43;102337.09;;;-13.84;60.19
85244;BME280;75643;56.928;41.094;2024-02-15T13:03:11;102339.78;;;-13.89;60.39
85244;BME280;75643;56.928;41.094;2024-02-15T13:05:39;102343.09;;;-13.83;60.92
85244;BME280;75643;56.928;41.094;2024-02-15T13:08:10;102335.06;;;-13.93;60.96
85244;BME280;75643;56.928;41.094;2024-02-15T13:10:39;102351.59;;;-13.90;61.16
85244;BME280;75643;56.928;41.094;2024-02-15T13:13:08;102345.63;;;-13.90;63.01
85244;BME280;75643;56.928;41.094;2024-02-15T13:15:40;102346.28;;;-13.98;63.58
85244;BME280;75643;56.928;41.094;2024-02-15T13:18:06;102336.31;;;-13.97;64.37
85244;BME280;75643;56.928;41.094;2024-02-15T13:20:36;102340.25;;;-14.06;65.45
85244;BME280;75643;56.928;41.094;2024-02-15T13:23:05;102353.09;;;-14.12;66.82
85244;BME280;75643;56.928;41.094;2024-02-15T13:25:35;102341.84;;;-14.14;68.30
85244;BME280;75643;56.928;41.094;2024-02-15T13:28:11;102326.56;;;-14.21;69.18
85244;BME280;75643;56.928;41.094;2024-02-15T16:00:08;102327.34;;;-14.34;76.63
85244;BME280;75643;56.928;41.094;2024-02-15T16:02:45;102341.88;;;-14.33;76.55
85244;BME280;75643;56.928;41.094;2024-02-15T16:05:12;102324.09;;;-14.33;77.22
85244;BME280;75643;56.928;41.094;2024-02-15T16:07:41;102337.69;;;-14.40;76.80
85244;BME280;75643;56.928;41.094;2024-02-15T16:10:09;102297.84;;;-14.54;76.72
85244;BME280;75643;56.928;41.094;2024-02-15T16:12:39;102325.00;;;-14.40;76.69
85244;BME280;75643;56.928;41.094;2024-02-15T16:15:07;102310.59;;;-14.46;76.91
85244;BME280;75643;56.928;41.094;2024-02-15T16:17:35;102306.84;;;-14.43;76.69
85244;BME280;75643;56.928;41.094;2024-02-15T16:20:02;102307.28;;;-14.52;76.69
85244;BME280;75643;56.928;41.094;2024-02-15T16:22:35;102323.09;;;-14.48;77.48
85244;BME280;75643;56.928;41.094;2024-02-15T16:25:05;102293.81;;;-14.59;76.64
85244;BME280;75643;56.928;41.094;2024-02-15T16:27:33;102301.88;;;-14.48;77.11
85244;BME280;75643;56.928;41.094;2024-02-15T16:30:00;102293.69;;;-14.53;77.45
85244;BME280;75643;56.928;41.094;2024-02-15T16:32:27;102305.28;;;-14.55;77.60
85244;BME280;75643;56.928;41.094;2024-02-15T16:34:57;102316.88;;;-14.57;77.81
85244;BME280;75643;56.928;41.094;2024-02-15T16:37:25;102324.72;;;-14.48;77.12
85244;BME280;75643;56.928;41.094;2024-02-15T16:39:54;102315.31;;;-14.49;78.01
85244;BME280;75643;56.928;41.094;2024-02-15T16:42:24;102322.38;;;-14.47;77.37
85244;BME280;75643;56.928;41.094;2024-02-15T16:44:50;102337.81;;;-14.45;77.45
85244;BME280;75643;56.928;41.094;2024-02-15T16:47:18;102313.13;;;-14.46;77.37